createdAt,value
2023-05-09T00:03:53.774Z,49.42
2023-05-09T00:08:56.668Z,53.28
2023-05-09T00:13:59.453Z,53.50
2023-05-09T00:19:03.536Z,53.93
2023-05-09T00:24:06.648Z,52.46
2023-05-09T00:29:09.443Z,57.21
2023-05-09T00:34:12.291Z,59.27
2023-05-09T00:39:15.197Z,60.40
2023-05-09T00:44:18.156Z,60.89
2023-05-09T00:49:20.971Z,73.79
2023-05-09T00:54:23.842Z,62.24
2023-05-09T00:59:27.475Z,51.53
2023-05-09T01:04:30.562Z,54.78
2023-05-09T01:09:58.436Z,57.65
2023-05-09T01:15:08.851Z,59.61
2023-05-09T01:20:47.607Z,61.80
2023-05-09T01:26:04.625Z,70.18
2023-05-09T01:31:09.705Z,53.88
2023-05-09T01:36:18.138Z,54.68
2023-05-09T01:41:23.439Z,57.73
2023-05-09T01:46:27.653Z,59.53
2023-05-09T01:51:31.840Z,58.26
2023-05-09T01:56:36.532Z,59.34
2023-05-09T02:01:39.429Z,71.12
2023-05-09T02:06:44.846Z,61.17
2023-05-09T02:11:47.805Z,51.36
2023-05-09T02:16:51.491Z,54.87
2023-05-09T02:21:54.333Z,59.14
2023-05-09T02:26:57.676Z,61.22
2023-05-09T02:32:01.494Z,70.16
2023-05-09T02:37:05.270Z,56.98
2023-05-09T02:42:18.746Z,53.34
2023-05-09T02:47:21.972Z,57.67
2023-05-09T02:52:24.918Z,59.13
2023-05-09T02:57:27.819Z,68.64
2023-05-09T03:02:31.042Z,55.85
2023-05-09T03:07:34.390Z,53.14
2023-05-09T03:12:38.725Z,55.74
2023-05-09T03:17:41.872Z,59.59
2023-05-09T03:22:44.787Z,59.60
2023-05-09T03:27:47.572Z,61.28
2023-05-09T03:32:50.465Z,59.18
2023-05-09T03:37:53.324Z,58.44
2023-05-09T03:42:56.196Z,60.73
2023-05-09T03:47:59.427Z,73.68
2023-05-09T03:53:02.551Z,63.72
2023-05-09T03:58:05.391Z,52.15
2023-05-09T04:03:08.437Z,55.43
2023-05-09T04:08:11.570Z,58.63
2023-05-09T04:13:14.424Z,59.64
2023-05-09T04:18:17.369Z,59.81
2023-05-09T04:23:20.180Z,60.02
2023-05-09T04:28:23.106Z,58.21
2023-05-09T04:33:25.990Z,57.84
2023-05-09T04:38:28.776Z,58.01
2023-05-09T04:43:32.724Z,58.48
2023-05-09T04:48:35.976Z,58.57
2023-05-09T04:53:38.968Z,59.53
2023-05-09T04:58:41.792Z,59.92
2023-05-09T05:03:46.309Z,60.01
2023-05-09T05:08:49.136Z,61.00
2023-05-09T05:13:52.069Z,59.67
2023-05-09T05:18:54.900Z,59.57
2023-05-09T05:23:57.700Z,58.37
2023-05-09T05:29:00.978Z,58.57
2023-05-09T05:34:03.669Z,57.73
2023-05-09T05:39:06.561Z,57.14
2023-05-09T05:44:09.546Z,57.63
2023-05-09T05:49:12.395Z,57.02
2023-05-09T05:54:15.252Z,56.68
2023-05-09T05:59:18.070Z,56.08
2023-05-09T06:04:21.440Z,56.02
2023-05-09T06:09:24.310Z,55.80
2023-05-09T06:14:27.212Z,55.22
2023-05-09T06:19:30.049Z,54.96
2023-05-09T06:24:36.212Z,54.44
2023-05-09T06:29:39.512Z,54.40
2023-05-09T06:34:42.397Z,53.54
2023-05-09T06:39:46.274Z,52.50
2023-05-09T06:44:49.187Z,51.96
2023-05-09T06:49:52.122Z,51.90
2023-05-09T06:54:55.150Z,51.38
2023-05-09T06:59:57.844Z,50.95
2023-05-09T07:05:00.813Z,50.51
2023-05-09T07:10:11.440Z,48.86
2023-05-09T07:15:22.941Z,48.98
2023-05-09T07:20:36.400Z,46.52
2023-05-09T07:25:39.746Z,46.26
2023-05-09T07:30:43.788Z,44.95
2023-05-09T07:35:46.752Z,42.98
2023-05-09T07:40:49.484Z,42.98
2023-05-09T07:45:52.311Z,42.84
2023-05-09T07:50:55.159Z,40.11
2023-05-09T07:55:59.594Z,42.06
2023-05-09T08:01:02.711Z,41.17
2023-05-09T08:06:05.596Z,39.41
2023-05-09T08:11:08.412Z,40.09
2023-05-09T08:16:11.780Z,39.67
2023-05-09T08:21:14.618Z,39.34
2023-05-09T08:26:17.348Z,38.30
2023-05-09T08:31:20.357Z,38.50
2023-05-09T08:36:23.484Z,37.63
2023-05-09T08:41:29.580Z,37.30
2023-05-09T08:46:37.164Z,36.88
2023-05-09T08:51:41.051Z,36.63
2023-05-09T08:56:43.941Z,35.88
2023-05-09T09:01:48.025Z,36.02
2023-05-09T09:06:52.204Z,35.66
2023-05-09T09:11:56.983Z,34.53
2023-05-09T09:17:01.196Z,35.42
2023-05-09T09:22:05.076Z,34.45
2023-05-09T09:27:08.525Z,35.35
2023-05-09T09:32:11.749Z,34.63
2023-05-09T09:37:24.311Z,35.01
2023-05-09T09:42:27.145Z,34.59
2023-05-09T09:47:33.274Z,33.61
2023-05-09T09:52:36.730Z,33.98
2023-05-09T09:57:41.808Z,33.43
2023-05-09T10:02:54.930Z,33.70
2023-05-09T10:07:59.419Z,33.30
2023-05-09T10:13:09.678Z,32.25
2023-05-09T10:18:18.502Z,31.14
2023-05-09T10:23:23.612Z,31.70
2023-05-09T10:28:32.097Z,30.67
2023-05-09T10:33:42.749Z,31.00
2023-05-09T10:38:47.387Z,31.23
2023-05-09T10:43:50.425Z,31.08
2023-05-09T10:48:55.225Z,30.48
2023-05-09T10:53:58.851Z,30.68
2023-05-09T10:59:02.347Z,29.84
2023-05-09T11:04:13.152Z,30.33
2023-05-09T11:09:27.108Z,29.64
2023-05-09T11:14:42.553Z,29.86
2023-05-09T11:19:45.574Z,29.14
2023-05-09T11:24:50.977Z,28.57
2023-05-09T11:29:59.621Z,28.40
2023-05-09T11:35:17.889Z,28.56
2023-05-09T11:40:22.960Z,29.03
2023-05-09T11:45:28.691Z,28.32
2023-05-09T11:50:31.697Z,28.71
2023-05-09T11:55:38.190Z,27.82
2023-05-09T12:00:47.707Z,28.28
2023-05-09T12:05:51.098Z,27.88
2023-05-09T12:10:54.071Z,28.13
2023-05-09T12:16:02.691Z,26.65
2023-05-09T12:21:07.228Z,27.11
2023-05-09T12:26:11.077Z,27.42
2023-05-09T12:31:14.706Z,27.63
2023-05-09T12:36:18.840Z,27.34
2023-05-09T12:46:33.837Z,27.36
2023-05-09T12:51:37.917Z,27.35
2023-05-09T12:56:41.027Z,27.01
2023-05-09T13:01:44.520Z,27.26
2023-05-09T13:06:52.384Z,27.69
2023-05-09T13:11:55.468Z,27.48
2023-05-09T13:16:58.456Z,26.24
2023-05-09T13:22:02.097Z,26.27
2023-05-09T13:27:05.803Z,25.78
2023-05-09T13:32:08.895Z,26.12
2023-05-09T13:37:11.770Z,26.25
2023-05-09T13:42:14.600Z,25.62
2023-05-09T13:47:17.467Z,25.68
2023-05-09T13:52:20.314Z,25.84
2023-05-09T13:57:23.154Z,26.23
2023-05-09T14:02:26.133Z,25.86
2023-05-09T14:07:29.370Z,26.38
2023-05-09T14:12:32.796Z,25.70
2023-05-09T14:17:35.888Z,25.75
2023-05-09T14:22:38.806Z,24.54
2023-05-09T14:27:42.096Z,24.14
2023-05-09T14:32:45.498Z,24.59
2023-05-09T14:37:48.377Z,24.13
2023-05-09T14:42:51.333Z,24.94
2023-05-09T14:47:54.251Z,24.99
2023-05-09T14:52:57.415Z,22.25
2023-05-09T14:58:00.255Z,22.14
2023-05-09T15:03:03.267Z,21.90
2023-05-09T15:08:07.133Z,21.55
2023-05-09T15:13:11.473Z,20.82
2023-05-09T15:18:16.561Z,19.10
2023-05-09T15:23:19.460Z,19.99
2023-05-09T15:28:22.459Z,18.60
2023-05-09T15:33:25.583Z,18.62
2023-05-09T15:38:28.643Z,17.62
2023-05-09T15:43:31.509Z,17.44
2023-05-09T15:48:34.307Z,17.20
2023-05-09T15:53:37.195Z,16.88
2023-05-09T15:58:40.478Z,17.56
2023-05-09T16:03:43.522Z,16.78
2023-05-09T16:08:46.597Z,16.61
2023-05-09T16:13:49.528Z,16.42
2023-05-09T16:18:52.720Z,16.07
2023-05-09T16:23:58.002Z,15.94
2023-05-09T16:29:02.150Z,15.45
2023-05-09T16:34:05.020Z,15.20
2023-05-09T16:39:07.852Z,15.08
2023-05-09T16:44:10.876Z,14.80
2023-05-09T16:49:17.743Z,15.02
2023-05-09T16:54:21.517Z,14.52
2023-05-09T16:59:24.343Z,14.47
2023-05-09T17:04:27.726Z,14.57
2023-05-09T17:09:30.622Z,14.53
2023-05-09T17:14:33.479Z,14.71
2023-05-09T17:19:36.823Z,14.80
2023-05-09T17:24:39.663Z,15.35
2023-05-09T17:29:42.527Z,15.52
2023-05-09T17:34:45.329Z,16.19
2023-05-09T17:39:48.156Z,16.77
2023-05-09T17:44:51.096Z,17.84
2023-05-09T17:49:53.909Z,19.32
2023-05-09T17:54:56.811Z,20.72
2023-05-09T18:00:00.499Z,21.29
2023-05-09T18:05:03.424Z,22.44
2023-05-09T18:10:07.955Z,23.79
2023-05-09T18:15:11.201Z,23.84
2023-05-09T18:20:14.311Z,25.34
2023-05-09T18:25:17.437Z,26.68
2023-05-09T18:30:21.995Z,26.38
2023-05-09T18:35:25.028Z,27.12
2023-05-09T18:40:28.540Z,28.99
2023-05-09T18:45:31.330Z,30.20
2023-05-09T18:50:34.305Z,30.74
2023-05-09T18:55:37.148Z,31.61
2023-05-09T19:00:40.266Z,32.71
2023-05-09T19:05:44.087Z,33.58
2023-05-09T19:10:46.895Z,34.56
2023-05-09T19:15:50.285Z,33.93
2023-05-09T19:20:53.116Z,33.77
2023-05-09T19:25:55.988Z,34.18
2023-05-09T19:30:59.146Z,35.16
2023-05-09T19:36:01.927Z,33.39
2023-05-09T19:41:04.806Z,34.91
2023-05-09T19:46:07.756Z,38.18
2023-05-09T19:51:12.576Z,40.86
2023-05-09T19:56:15.752Z,41.83
2023-05-09T20:01:19.536Z,41.28
2023-05-09T20:11:42.893Z,40.35
2023-05-09T20:16:45.798Z,40.90
2023-05-09T20:21:48.625Z,42.80
2023-05-09T20:26:51.557Z,43.41
2023-05-09T20:31:54.373Z,42.18
2023-05-09T20:36:57.095Z,43.64
2023-05-09T20:42:02.529Z,46.58
2023-05-09T20:47:05.975Z,46.69
2023-05-09T20:52:08.783Z,45.28
2023-05-09T20:57:11.523Z,47.57
2023-05-09T21:02:14.333Z,49.41
2023-05-09T21:07:20.058Z,51.76
2023-05-09T21:12:23.135Z,52.54
2023-05-09T21:17:26.232Z,50.94
2023-05-09T21:22:29.221Z,47.46
2023-05-09T21:27:32.007Z,47.25
2023-05-09T21:32:34.836Z,49.27
2023-05-09T21:37:37.672Z,48.14
2023-05-09T21:42:41.238Z,50.51
2023-05-09T21:47:44.077Z,51.33
2023-05-09T21:52:47.037Z,47.95
2023-05-09T21:57:49.802Z,47.84
2023-05-09T22:02:52.664Z,51.98
2023-05-09T22:07:55.660Z,51.80
2023-05-09T22:12:58.477Z,51.52
2023-05-09T22:18:01.464Z,52.10
2023-05-09T22:23:04.350Z,53.39
2023-05-09T22:28:07.206Z,55.54
2023-05-09T22:33:10.014Z,52.43
2023-05-09T22:38:12.839Z,51.31
2023-05-09T22:43:15.671Z,52.24
2023-05-09T22:48:18.513Z,57.19
2023-05-09T22:53:21.342Z,58.07
2023-05-09T22:58:24.222Z,55.85
2023-05-09T23:03:27.242Z,55.46
2023-05-09T23:08:31.985Z,50.07
2023-05-09T23:13:34.802Z,52.47
2023-05-09T23:18:37.642Z,55.67
2023-05-09T23:23:40.607Z,56.30
2023-05-09T23:28:43.399Z,58.09
2023-05-09T23:33:46.338Z,58.73
2023-05-09T23:38:49.175Z,60.56
2023-05-09T23:43:52.110Z,72.77
2023-05-09T23:48:55.754Z,62.01
2023-05-09T23:53:58.585Z,51.61
2023-05-09T23:59:01.413Z,54.96
